createdAt,value
2019-01-02T00:00:27.111Z,4.80
2019-01-02T00:01:27.027Z,4.90
2019-01-02T00:02:27.186Z,5.40
2019-01-02T00:03:26.971Z,4.70
2019-01-02T00:04:27.095Z,4.60
2019-01-02T00:05:26.915Z,4.80
2019-01-02T00:06:27.007Z,4.50
2019-01-02T00:07:26.849Z,4.90
2019-01-02T00:08:26.926Z,4.90
2019-01-02T00:09:26.795Z,4.30
2019-01-02T00:10:26.933Z,4.50
2019-01-02T00:11:26.733Z,4.80
2019-01-02T00:12:26.846Z,4.90
2019-01-02T00:13:26.672Z,4.80
2019-01-02T00:14:26.761Z,4.60
2019-01-02T00:15:26.614Z,5.30
2019-01-02T00:16:26.584Z,4.70
2019-01-02T00:17:26.551Z,4.90
2019-01-02T00:18:26.533Z,4.60
2019-01-02T00:19:26.489Z,4.80
2019-01-02T00:20:26.464Z,4.90
2019-01-02T00:21:26.555Z,5.10
2019-01-02T00:22:26.404Z,4.50
2019-01-02T00:23:26.373Z,4.80
2019-01-02T00:24:26.478Z,5.20
2019-01-02T00:25:26.310Z,4.50
2019-01-02T00:26:26.282Z,5.10
2019-01-02T00:27:26.255Z,4.60
2019-01-02T00:28:26.226Z,4.50
2019-01-02T00:29:26.200Z,5.60
2019-01-02T00:30:26.166Z,4.30
2019-01-02T00:31:26.134Z,4.40
2019-01-02T00:32:26.109Z,4.50
2019-01-02T00:33:26.076Z,4.70
2019-01-02T00:34:26.051Z,4.10
2019-01-02T00:35:26.013Z,3.70
2019-01-02T00:36:27.068Z,4.30
2019-01-02T00:37:25.956Z,4.30
2019-01-02T00:38:25.928Z,3.90
2019-01-02T00:39:25.963Z,5.20
2019-01-02T00:40:25.869Z,5.10
2019-01-02T00:41:25.978Z,5.20
2019-01-02T00:42:25.807Z,4.40
2019-01-02T00:43:25.882Z,4.70
2019-01-02T00:44:25.775Z,4.00
2019-01-02T00:45:25.797Z,3.80
2019-01-02T00:46:25.688Z,4.40
2019-01-02T00:47:25.657Z,4.20
2019-01-02T00:48:25.630Z,4.20
2019-01-02T00:49:25.598Z,4.50
2019-01-02T00:50:25.729Z,4.60
2019-01-02T00:51:25.538Z,5.40
2019-01-02T00:52:25.637Z,4.20
2019-01-02T00:53:25.476Z,5.10
2019-01-02T00:54:25.447Z,5.10
2019-01-02T00:55:25.557Z,4.60
2019-01-02T00:56:25.388Z,4.20
2019-01-02T00:57:25.475Z,4.40
2019-01-02T00:58:25.327Z,4.30
2019-01-02T00:59:25.300Z,4.20
2019-01-02T01:00:25.271Z,5.50
2019-01-02T01:01:25.234Z,4.30
2019-01-02T01:02:25.207Z,4.80
2019-01-02T01:03:25.206Z,4.80
2019-01-02T01:04:26.034Z,5.00
2019-01-02T01:05:25.117Z,4.50
2019-01-02T01:06:25.089Z,5.70
2019-01-02T01:07:27.036Z,4.80
2019-01-02T01:08:25.027Z,4.10
2019-01-02T01:09:25.005Z,4.30
2019-01-02T01:10:25.158Z,4.70
2019-01-02T01:11:24.938Z,4.60
2019-01-02T01:12:25.069Z,4.50
2019-01-02T01:13:24.881Z,4.80
2019-01-02T01:14:24.980Z,4.30
2019-01-02T01:15:24.819Z,5.30
2019-01-02T01:16:24.823Z,4.80
2019-01-02T01:17:24.761Z,5.00
2019-01-02T01:18:24.836Z,4.10
2019-01-02T01:19:24.700Z,4.90
2019-01-02T01:20:24.748Z,4.20
2019-01-02T01:21:24.653Z,4.60
2019-01-02T01:22:24.658Z,4.00
2019-01-02T01:23:24.577Z,4.20
2019-01-02T01:24:24.572Z,4.40
2019-01-02T01:25:24.522Z,5.00
2019-01-02T01:26:24.585Z,4.30
2019-01-02T01:27:24.457Z,5.50
2019-01-02T01:28:24.498Z,4.70
2019-01-02T01:29:24.398Z,5.20
2019-01-02T01:30:24.400Z,4.70
2019-01-02T01:31:24.335Z,5.20
2019-01-02T01:32:24.417Z,4.00
2019-01-02T01:33:24.277Z,4.40
2019-01-02T01:34:24.325Z,4.90
2019-01-02T01:35:24.218Z,4.50
2019-01-02T01:36:24.236Z,5.30
2019-01-02T01:37:24.156Z,4.20
2019-01-02T01:38:24.147Z,5.20
2019-01-02T01:39:24.102Z,5.00
2019-01-02T01:40:24.158Z,4.90
2019-01-02T01:41:24.037Z,5.30
2019-01-02T01:42:24.068Z,4.70
2019-01-02T01:43:23.978Z,5.10
2019-01-02T01:44:25.008Z,5.00
2019-01-02T01:45:23.921Z,4.50
2019-01-02T01:46:23.998Z,4.70
2019-01-02T01:47:23.857Z,5.60
2019-01-02T01:48:31.583Z,4.10
2019-01-02T01:49:23.798Z,5.40
2019-01-02T01:50:44.766Z,4.30
2019-01-02T01:51:23.737Z,4.50
2019-01-02T01:52:24.749Z,4.80
2019-01-02T01:53:23.676Z,4.80
2019-01-02T01:54:23.739Z,4.70
2019-01-02T01:55:23.621Z,4.80
2019-01-02T01:56:23.650Z,4.40
2019-01-02T01:57:23.557Z,4.90
2019-01-02T01:58:23.560Z,4.80
2019-01-02T01:59:23.496Z,5.10
2019-01-02T02:00:24.492Z,4.60
2019-01-02T02:01:23.437Z,5.00
2019-01-02T02:02:23.480Z,4.80
2019-01-02T02:03:23.376Z,4.80
2019-01-02T02:04:23.392Z,3.90
2019-01-02T02:05:23.316Z,4.80
2019-01-02T02:06:23.303Z,5.30
2019-01-02T02:07:23.264Z,4.80
2019-01-02T02:08:23.318Z,4.70
2019-01-02T02:09:23.194Z,4.90
2019-01-02T02:10:23.225Z,4.60
2019-01-02T02:11:23.138Z,5.50
2019-01-02T02:12:23.135Z,5.00
2019-01-02T02:13:23.077Z,4.20
2019-01-02T02:14:23.150Z,5.20
2019-01-02T02:15:23.015Z,4.60
2019-01-02T02:16:23.060Z,4.80
2019-01-02T02:17:22.954Z,4.90
2019-01-02T02:18:22.968Z,4.60
2019-01-02T02:19:22.894Z,4.60
2019-01-02T02:20:22.883Z,5.00
2019-01-02T02:21:22.839Z,4.40
2019-01-02T02:22:22.898Z,5.40
2019-01-02T02:23:22.774Z,4.50
2019-01-02T02:24:22.806Z,5.10
2019-01-02T02:25:22.716Z,4.50
2019-01-02T02:26:22.728Z,4.40
2019-01-02T02:27:22.655Z,4.80
2019-01-02T02:28:22.733Z,5.10
2019-01-02T02:29:22.591Z,5.10
2019-01-02T02:30:22.640Z,4.50
2019-01-02T02:31:22.533Z,4.70
2019-01-02T02:32:22.551Z,5.30
2019-01-02T02:33:22.470Z,4.90
2019-01-02T02:34:22.463Z,5.20
2019-01-02T02:35:22.462Z,3.80
2019-01-02T02:36:22.474Z,4.60
2019-01-02T02:37:22.354Z,4.40
2019-01-02T02:38:22.385Z,4.70
2019-01-02T02:39:22.291Z,4.40
2019-01-02T02:40:23.320Z,4.40
2019-01-02T02:41:22.228Z,4.90
2019-01-02T02:42:22.310Z,5.10
2019-01-02T02:43:22.175Z,4.40
2019-01-02T02:44:22.221Z,5.30
2019-01-02T02:45:22.105Z,5.30
2019-01-02T02:46:29.092Z,4.90
2019-01-02T02:47:22.051Z,4.90
2019-01-02T02:48:22.041Z,5.80
2019-01-02T02:49:21.991Z,4.90
2019-01-02T02:50:22.077Z,5.40
2019-01-02T02:51:21.930Z,5.20
2019-01-02T02:52:21.959Z,4.80
2019-01-02T02:53:21.866Z,5.10
2019-01-02T02:54:21.873Z,4.40
2019-01-02T02:55:21.822Z,5.20
2019-01-02T02:56:23.833Z,5.70
2019-01-02T02:57:21.743Z,5.10
2019-01-02T02:58:22.817Z,5.20
2019-01-02T02:59:21.686Z,5.10
2019-01-02T03:00:21.705Z,4.20
2019-01-02T03:01:21.626Z,4.50
2019-01-02T03:02:21.613Z,5.00
2019-01-02T03:03:21.563Z,5.10
2019-01-02T03:04:21.633Z,5.00
2019-01-02T03:05:21.501Z,4.90
2019-01-02T03:06:22.061Z,5.10
2019-01-02T03:07:21.442Z,5.90
2019-01-02T03:08:21.447Z,4.90
2019-01-02T03:09:21.379Z,5.20
2019-01-02T03:10:21.461Z,5.00
2019-01-02T03:11:21.320Z,4.70
2019-01-02T03:12:21.372Z,4.90
2019-01-02T03:13:21.263Z,4.30
2019-01-02T03:14:28.146Z,5.40
2019-01-02T03:15:21.208Z,4.40
2019-01-02T03:16:21.192Z,4.60
2019-01-02T03:17:21.141Z,5.60
2019-01-02T03:18:30.142Z,4.80
2019-01-02T03:19:21.086Z,4.40
2019-01-02T03:20:22.147Z,4.80
2019-01-02T03:21:21.022Z,5.30
2019-01-02T03:22:22.053Z,4.70
2019-01-02T03:23:20.966Z,5.40
2019-01-02T03:24:21.037Z,5.30
2019-01-02T03:25:20.898Z,4.50
2019-01-02T03:26:21.976Z,6.10
2019-01-02T03:27:20.835Z,4.90
2019-01-02T03:28:20.883Z,6.10
2019-01-02T03:29:20.781Z,5.60
2019-01-02T03:30:20.774Z,5.60
2019-01-02T03:31:20.717Z,5.40
2019-01-02T03:32:22.737Z,5.10
2019-01-02T03:33:20.655Z,5.50
2019-01-02T03:34:20.695Z,5.10
2019-01-02T03:35:20.608Z,5.60
2019-01-02T03:36:20.606Z,4.70
2019-01-02T03:37:20.531Z,5.60
2019-01-02T03:38:20.527Z,5.90
2019-01-02T03:39:22.569Z,5.10
2019-01-02T03:40:20.448Z,5.30
2019-01-02T03:41:20.438Z,5.60
2019-01-02T03:42:20.384Z,5.50
2019-01-02T03:43:21.475Z,5.60
2019-01-02T03:44:20.329Z,5.60
2019-01-02T03:45:20.358Z,6.10
2019-01-02T03:46:20.270Z,6.70
2019-01-02T03:47:20.267Z,5.20
2019-01-02T03:48:20.206Z,5.50
2019-01-02T03:49:20.283Z,5.40
2019-01-02T03:50:20.144Z,5.20
2019-01-02T03:51:21.213Z,6.50
2019-01-02T03:52:20.091Z,5.70
2019-01-02T03:53:20.100Z,6.10
2019-01-02T03:54:20.020Z,6.40
2019-01-02T03:55:20.013Z,6.30
2019-01-02T03:56:19.962Z,6.30
2019-01-02T03:57:20.031Z,6.10
2019-01-02T03:58:19.900Z,5.30
2019-01-02T04:00:19.839Z,5.70
2019-01-02T04:01:19.848Z,5.90
2019-01-02T04:02:19.785Z,6.50
2019-01-02T04:03:19.862Z,7.00
2019-01-02T04:04:19.716Z,5.70
2019-01-02T04:05:19.779Z,7.00
2019-01-02T04:06:19.655Z,5.20
2019-01-02T04:07:26.748Z,6.10
2019-01-02T04:08:19.601Z,6.10
2019-01-02T04:09:19.589Z,6.30
2019-01-02T04:10:19.539Z,5.10
2019-01-02T04:11:26.160Z,5.80
2019-01-02T04:12:19.472Z,5.80
2019-01-02T04:13:19.518Z,6.10
2019-01-02T04:14:19.418Z,6.30
2019-01-02T04:15:20.453Z,5.80
2019-01-02T04:16:19.352Z,5.90
2019-01-02T04:17:21.381Z,6.40
2019-01-02T04:18:19.295Z,5.70
2019-01-02T04:19:19.350Z,5.60
2019-01-02T04:20:19.236Z,5.70
2019-01-02T04:21:19.258Z,5.40
2019-01-02T04:22:19.172Z,5.80
2019-01-02T04:23:20.190Z,7.00
2019-01-02T04:24:19.119Z,5.80
2019-01-02T04:25:19.183Z,6.60
2019-01-02T04:26:19.050Z,5.90
2019-01-02T04:27:20.110Z,5.30
2019-01-02T04:28:18.990Z,4.60
2019-01-02T04:29:19.002Z,6.10
2019-01-02T04:30:18.933Z,5.30
2019-01-02T04:31:18.911Z,5.60
2019-01-02T04:32:18.867Z,6.50
2019-01-02T04:33:19.954Z,6.20
2019-01-02T04:34:18.808Z,5.70
2019-01-02T04:35:19.860Z,5.70
2019-01-02T04:36:18.751Z,5.60
2019-01-02T04:37:19.784Z,5.30
2019-01-02T04:38:18.685Z,5.90
2019-01-02T04:39:35.657Z,5.90
2019-01-02T04:40:18.629Z,5.30
2019-01-02T04:41:34.643Z,5.80
2019-01-02T04:42:18.565Z,5.90
2019-01-02T04:43:18.581Z,5.40
2019-01-02T04:44:18.502Z,4.60
2019-01-02T04:45:19.515Z,5.10
2019-01-02T04:46:19.155Z,5.50
2019-01-02T04:47:19.335Z,5.80
2019-01-02T04:48:18.609Z,5.60
2019-01-02T04:49:20.254Z,6.00
2019-01-02T04:50:19.964Z,5.60
2019-01-02T04:51:19.118Z,5.60
2019-01-02T04:52:18.261Z,5.80
2019-01-02T19:52:11.919Z,5.60
2019-01-02T19:52:48.736Z,5.90
2019-01-02T20:47:55.202Z,7.10
2019-01-02T20:48:55.158Z,6.10
2019-01-02T21:04:35.967Z,6.60
2019-01-02T21:05:35.914Z,6.20
2019-01-02T21:06:36.994Z,6.10
2019-01-02T21:07:35.851Z,6.10
2019-01-02T21:08:35.873Z,6.90
2019-01-02T21:09:35.783Z,6.50
2019-01-02T21:10:35.786Z,6.90
2019-01-02T21:11:37.255Z,7.10
2019-01-02T21:12:37.737Z,6.90
2019-01-02T21:13:35.660Z,6.90
2019-01-02T21:14:35.695Z,7.40
2019-01-02T21:15:35.618Z,7.40
2019-01-02T21:16:36.647Z,7.60
2019-01-02T21:17:35.561Z,6.90
2019-01-02T21:18:35.526Z,6.80
2019-01-02T21:19:35.476Z,7.90
2019-01-02T21:20:35.468Z,7.90
2019-01-02T21:21:35.410Z,7.30
2019-01-02T21:22:35.381Z,7.80
2019-01-02T21:23:35.381Z,7.40
2019-01-02T21:24:44.378Z,7.00
2019-01-02T21:25:35.294Z,7.60
2019-01-02T21:26:36.306Z,7.40
2019-01-02T21:27:35.262Z,7.10
2019-01-02T21:28:35.274Z,7.50
2019-01-02T21:29:35.192Z,6.50
2019-01-02T21:30:35.131Z,6.70
2019-01-02T21:31:36.121Z,6.90
2019-01-02T21:32:36.129Z,6.80
2019-01-02T21:33:35.035Z,6.80
2019-01-02T21:34:37.069Z,6.60
2019-01-02T21:35:34.999Z,7.00
2019-01-02T21:36:43.861Z,6.70
2019-01-02T21:37:34.926Z,7.30
2019-01-02T21:38:41.834Z,8.60
2019-01-02T21:39:34.880Z,8.80
2019-01-02T21:40:51.883Z,9.80
2019-01-02T21:41:34.805Z,9.00
2019-01-02T21:42:35.784Z,7.80
2019-01-02T21:43:34.720Z,7.30
2019-01-02T21:44:35.799Z,8.10
2019-01-02T21:45:34.664Z,7.90
2019-01-02T21:46:35.635Z,7.40
2019-01-02T21:47:34.703Z,8.40
2019-01-02T21:48:34.559Z,8.00
2019-01-02T21:49:34.595Z,8.50
2019-01-02T21:50:34.514Z,8.00
2019-01-02T21:51:34.504Z,8.30
2019-01-02T21:52:35.541Z,8.70
2019-01-02T21:53:34.410Z,8.40
2019-01-02T21:54:36.431Z,8.60
2019-01-02T21:55:34.352Z,9.00
2019-01-02T21:56:34.361Z,8.50
2019-01-02T21:57:34.346Z,10.10
2019-01-02T21:58:34.263Z,10.60
2019-01-02T21:59:36.325Z,10.70
2019-01-02T22:00:34.190Z,9.60
2019-01-02T22:01:35.213Z,9.50
2019-01-02T22:02:40.155Z,10.50
2019-01-02T22:03:36.128Z,9.60
2019-01-02T22:04:34.095Z,8.10
2019-01-02T22:05:35.099Z,8.20
2019-01-02T22:06:33.991Z,7.70
2019-01-02T22:07:57.852Z,7.50
2019-01-02T22:08:34.803Z,6.90
2019-01-02T22:09:40.885Z,7.00
2019-01-02T22:10:33.866Z,6.50
2019-01-02T22:11:34.949Z,6.40
2019-01-02T22:12:33.820Z,6.70
2019-01-02T22:13:33.867Z,6.20
2019-01-02T22:14:33.750Z,6.60
2019-01-02T22:15:33.731Z,6.70
2019-01-02T22:16:33.772Z,6.70
2019-01-02T22:17:33.650Z,6.50
2019-01-02T22:18:35.728Z,6.40
2019-01-02T22:19:33.601Z,7.20
2019-01-02T22:20:33.568Z,6.40
2019-01-02T22:21:33.542Z,6.20
2019-01-02T22:22:33.516Z,6.80
2019-01-02T22:23:33.467Z,7.00
2019-01-02T22:24:48.453Z,6.30
2019-01-02T22:25:33.404Z,6.00
2019-01-02T22:26:35.457Z,6.60
2019-01-02T22:27:33.378Z,6.60
2019-01-02T22:28:41.316Z,7.10
2019-01-02T22:29:33.279Z,7.00
2019-01-02T22:30:34.379Z,6.80
2019-01-02T22:31:33.233Z,6.80
2019-01-02T22:32:33.192Z,6.60
2019-01-02T22:33:33.152Z,6.90
2019-01-02T22:34:34.162Z,6.90
2019-01-02T22:35:33.092Z,7.30
2019-01-02T22:36:35.115Z,7.00
2019-01-02T22:37:33.068Z,7.20
2019-01-02T22:38:32.985Z,7.00
2019-01-02T22:39:34.000Z,7.20
2019-01-02T22:40:32.930Z,7.10
2019-01-02T22:41:34.022Z,7.70
2019-01-02T22:42:32.857Z,8.20
2019-01-02T22:43:32.908Z,7.70
2019-01-02T22:44:32.807Z,7.90
2019-01-02T22:45:33.773Z,7.30
2019-01-02T22:46:32.750Z,7.40
2019-01-02T22:47:32.699Z,7.10
2019-01-02T22:48:32.666Z,7.70
2019-01-02T22:49:32.641Z,7.20
2019-01-02T22:50:32.604Z,7.40
2019-01-02T22:51:39.307Z,7.00
2019-01-02T22:52:32.536Z,6.90
2019-01-02T22:53:32.513Z,7.20
2019-01-02T22:54:32.522Z,7.40
2019-01-02T22:55:32.449Z,7.30
2019-01-02T22:56:32.444Z,7.70
2019-01-02T22:57:32.383Z,7.40
2019-01-02T22:58:39.297Z,7.30
2019-01-02T22:59:32.312Z,7.50
2019-01-02T23:00:32.315Z,6.80
2019-01-02T23:01:34.277Z,7.40
2019-01-02T23:02:32.300Z,7.40
2019-01-02T23:03:32.209Z,7.90
2019-01-02T23:04:32.165Z,7.20
2019-01-02T23:05:32.145Z,7.00
2019-01-02T23:06:32.093Z,8.10
2019-01-02T23:07:32.074Z,7.00
2019-01-02T23:08:32.051Z,7.10
2019-01-02T23:09:33.053Z,7.20
2019-01-02T23:10:32.001Z,7.60
2019-01-02T23:11:32.981Z,8.20
2019-01-02T23:12:31.927Z,7.10
2019-01-02T23:13:32.987Z,7.20
2019-01-02T23:14:31.850Z,7.80
2019-01-02T23:15:31.821Z,7.10
2019-01-02T23:16:31.788Z,7.60
2019-01-02T23:17:31.745Z,8.20
2019-01-02T23:18:31.721Z,7.50
2019-01-02T23:19:40.402Z,6.80
2019-01-02T23:20:31.659Z,7.20
2019-01-02T23:21:31.719Z,7.70
2019-01-02T23:22:31.588Z,6.80
2019-01-02T23:23:32.638Z,7.20
2019-01-02T23:24:31.518Z,6.90
2019-01-02T23:25:31.544Z,7.60
2019-01-02T23:26:31.467Z,7.30
2019-01-02T23:27:31.553Z,7.80
2019-01-02T23:28:31.405Z,7.40
2019-01-02T23:29:31.448Z,7.00
2019-01-02T23:30:31.343Z,8.10
2019-01-02T23:31:31.363Z,7.30
2019-01-02T23:32:31.293Z,7.20
2019-01-02T23:33:31.287Z,7.40
2019-01-02T23:34:31.236Z,7.30
2019-01-02T23:35:31.304Z,7.30
2019-01-02T23:36:31.155Z,8.20
2019-01-02T23:37:31.137Z,7.30
2019-01-02T23:38:31.112Z,7.20
2019-01-02T23:39:32.128Z,6.80
2019-01-02T23:40:31.034Z,7.50
2019-01-02T23:41:32.053Z,8.00
2019-01-02T23:42:31.043Z,7.70
2019-01-02T23:43:30.932Z,7.60
2019-01-02T23:44:31.972Z,7.20
2019-01-02T23:45:30.869Z,7.50
2019-01-02T23:46:30.850Z,6.80
2019-01-02T23:47:30.796Z,8.10
2019-01-02T23:48:31.790Z,7.80
2019-01-02T23:49:30.734Z,7.50
2019-01-02T23:50:30.807Z,7.40
2019-01-02T23:51:30.681Z,7.30
2019-01-02T23:52:30.635Z,7.60
2019-01-02T23:53:30.610Z,7.90
2019-01-02T23:54:30.694Z,7.50
2019-01-02T23:55:30.548Z,8.30
2019-01-02T23:56:30.607Z,7.00
2019-01-02T23:57:30.471Z,8.00
2019-01-02T23:58:32.477Z,7.70
2019-01-02T23:59:30.415Z,7.00
